Time;durP1;ratioP1;P1;durP2;ratioP2;P2;SDS_P1;SDS_P2;PMS_P1;PMS_P2;Temp;Humidity;BMP_temperature;BMP_pressure;BME280_temperature;BME280_humidity;BME280_pressure;Samples;Min_cycle;Max_cycle;Signal;HPM_P1;HPM_P2
2021/08/02 00:01:21;;;;;;;10.02;6.60;;;15.50;99.90;;;;;;12528625;28;20044;-85
2021/08/02 00:07:24;;;;;;;11.05;6.43;;;15.60;99.90;;;;;;12528660;28;20419;-85
2021/08/02 00:13:33;;;;;;;11.35;6.30;;;15.50;99.90;;;;;;12538529;28;20102;-85
2021/08/02 00:19:35;;;;;;;10.00;5.70;;;15.50;99.90;;;;;;12549067;28;20059;-84
2021/08/02 00:25:38;;;;;;;12.43;5.88;;;15.50;99.90;;;;;;12566079;28;20049;-85
2021/08/02 00:31:40;;;;;;;9.07;5.97;;;15.40;99.90;;;;;;12526434;28;20330;-85
2021/08/02 00:37:53;;;;;;;11.73;6.05;;;15.20;99.90;;;;;;12533345;28;20048;-84
2021/08/02 00:44:28;;;;;;;7.13;4.85;;;15.20;99.90;;;;;;12523150;28;20103;-85
2021/08/02 00:50:34;;;;;;;10.40;5.07;;;15.10;99.90;;;;;;12529158;28;20044;-85
2021/08/02 00:56:39;;;;;;;14.25;5.10;;;15.00;99.90;;;;;;12526479;28;20401;-85
2021/08/02 01:02:44;;;;;;;7.20;4.32;;;15.00;99.90;;;;;;12524075;28;20045;-84
2021/08/02 01:08:48;;;;;;;10.57;5.03;;;15.00;99.90;;;;;;12522694;28;20709;-84
2021/08/02 01:14:50;;;;;;;12.68;5.00;;;15.00;99.90;;;;;;12525518;28;20052;-85
2021/08/02 01:20:54;;;;;;;10.27;4.78;;;14.90;99.90;;;;;;12521415;28;20045;-85
2021/08/02 01:26:59;;;;;;;12.23;5.35;;;14.80;99.90;;;;;;12508925;28;20114;-85
2021/08/02 01:33:00;;;;;;;11.60;4.47;;;14.80;99.90;;;;;;12520454;28;20055;-85
2021/08/02 01:39:02;;;;;;;16.05;4.97;;;14.60;99.90;;;;;;12521403;28;20074;-85
2021/08/02 01:45:06;;;;;;;10.27;5.75;;;14.60;99.90;;;;;;12519984;28;20051;-85
2021/08/02 01:51:17;;;;;;;7.88;4.20;;;14.50;99.90;;;;;;12526517;28;20044;-85
2021/08/02 01:57:27;;;;;;;10.82;4.32;;;14.30;99.90;;;;;;12520513;28;20049;-85
2021/08/02 02:03:30;;;;;;;13.82;3.90;;;14.20;99.90;;;;;;12512399;28;20078;-84
2021/08/02 02:09:35;;;;;;;15.57;4.00;;;14.30;99.90;;;;;;12526819;28;20086;-84
2021/08/02 02:15:39;;;;;;;7.78;3.90;;;14.30;99.90;;;;;;12515214;28;20426;-85
2021/08/02 02:21:43;;;;;;;10.45;3.70;;;14.30;99.90;;;;;;12517108;28;20133;-85
2021/08/02 02:27:46;;;;;;;8.65;3.50;;;14.00;99.90;;;;;;12524260;28;20141;-85
2021/08/02 02:33:49;;;;;;;8.80;3.45;;;13.70;99.90;;;;;;12523613;28;20097;-84
2021/08/02 02:39:52;;;;;;;10.18;3.42;;;13.40;99.90;;;;;;12523698;28;20049;-84
2021/08/02 02:45:54;;;;;;;9.25;3.53;;;13.20;99.90;;;;;;12532278;28;20144;-84
2021/08/02 02:51:57;;;;;;;8.98;3.42;;;13.20;99.90;;;;;;12524723;28;20726;-85
2021/08/02 02:58:00;;;;;;;7.97;3.03;;;13.40;99.90;;;;;;12534063;28;20464;-85
2021/08/02 03:04:03;;;;;;;9.18;2.55;;;13.20;99.90;;;;;;12526191;28;20136;-85
2021/08/02 03:10:06;;;;;;;8.65;2.70;;;13.10;99.90;;;;;;12513753;28;20056;-84
2021/08/02 03:16:09;;;;;;;11.98;2.85;;;13.10;99.90;;;;;;12534955;28;20045;-85
2021/08/02 03:22:23;;;;;;;8.98;2.60;;;12.90;99.90;;;;;;12527695;28;20095;-85
2021/08/02 03:28:37;;;;;;;;;;;12.80;99.90;;;;;;12531701;28;20114;-84
2021/08/02 03:34:40;;;;;;;4.13;2.45;;;12.80;99.90;;;;;;12529707;28;19920;-84
2021/08/02 03:40:44;;;;;;;6.00;2.45;;;12.70;99.90;;;;;;12527565;28;20066;-85
2021/08/02 03:46:47;;;;;;;;;;;12.70;99.90;;;;;;12541731;28;20285;-84
2021/08/02 03:52:48;;;;;;;7.47;2.35;;;12.60;99.90;;;;;;12522422;28;19924;-84
2021/08/02 03:58:50;;;;;;;7.47;2.25;;;12.60;99.90;;;;;;12524468;28;20049;-84
2021/08/02 04:04:52;;;;;;;6.95;2.80;;;12.50;99.90;;;;;;12539599;28;20109;-84
2021/08/02 04:10:55;;;;;;;5.88;2.38;;;12.40;99.90;;;;;;12518534;28;20049;-85
2021/08/02 04:16:56;;;;;;;5.55;2.30;;;12.40;99.90;;;;;;12529460;28;20095;-85
2021/08/02 04:22:58;;;;;;;7.57;2.78;;;12.40;99.90;;;;;;12524591;28;20041;-85
2021/08/02 04:29:00;;;;;;;11.95;2.60;;;12.40;99.90;;;;;;12563976;28;20078;-85
2021/08/02 04:35:02;;;;;;;8.05;2.90;;;12.40;99.90;;;;;;12539241;28;20136;-86
2021/08/02 04:41:04;;;;;;;12.18;2.83;;;12.40;99.90;;;;;;12519487;28;20590;-85
2021/08/02 04:47:06;;;;;;;6.50;2.45;;;12.50;99.90;;;;;;12522525;28;20151;-85
2021/08/02 04:53:08;;;;;;;7.18;2.80;;;12.50;99.90;;;;;;12523830;28;20128;-85
2021/08/02 04:59:10;;;;;;;3.90;2.30;;;12.70;99.90;;;;;;12526583;28;20097;-86
2021/08/02 05:05:12;;;;;;;7.18;2.42;;;12.70;99.90;;;;;;12518149;28;20055;-86
2021/08/02 05:11:14;;;;;;;7.65;3.10;;;12.80;99.90;;;;;;12519621;28;20119;-85
2021/08/02 05:17:16;;;;;;;8.93;3.17;;;12.80;99.90;;;;;;12510968;28;20448;-86
2021/08/02 05:23:18;;;;;;;6.15;3.20;;;12.90;99.90;;;;;;12511579;28;20576;-86
2021/08/02 05:29:20;;;;;;;9.48;3.83;;;12.90;99.90;;;;;;12514352;28;20057;-86
2021/08/02 05:35:21;;;;;;;9.48;4.13;;;13.00;99.90;;;;;;12516585;28;20494;-86
2021/08/02 05:41:23;;;;;;;7.70;3.72;;;13.10;99.90;;;;;;12517338;28;20127;-86
2021/08/02 05:47:26;;;;;;;8.15;3.28;;;13.20;99.90;;;;;;12516483;28;20520;-85
2021/08/02 05:53:29;;;;;;;7.00;3.30;;;13.40;99.90;;;;;;12517417;28;20065;-85
2021/08/02 05:59:30;;;;;;;11.10;3.10;;;13.40;99.90;;;;;;12518382;28;20501;-86
2021/08/02 06:05:32;;;;;;;8.20;3.33;;;13.40;99.90;;;;;;12512833;28;20144;-86
2021/08/02 06:11:35;;;;;;;5.65;3.22;;;13.50;99.90;;;;;;12506052;28;20091;-85
2021/08/02 06:17:37;;;;;;;9.90;3.40;;;13.60;99.90;;;;;;12516104;28;20045;-85
2021/08/02 06:23:39;;;;;;;10.35;3.40;;;13.80;99.90;;;;;;12516707;28;20489;-86
2021/08/02 06:29:41;;;;;;;9.93;2.88;;;14.00;99.90;;;;;;12517149;28;20049;-86
2021/08/02 06:35:43;;;;;;;5.32;2.72;;;14.20;99.90;;;;;;12519022;28;20041;-85
2021/08/02 06:41:45;;;;;;;7.53;2.72;;;14.60;99.90;;;;;;12521589;28;20068;-86
2021/08/02 06:47:47;;;;;;;5.40;2.33;;;14.90;99.90;;;;;;12514459;28;20067;-85
2021/08/02 06:53:49;;;;;;;5.88;1.90;;;15.00;99.90;;;;;;12509879;28;20066;-85
2021/08/02 07:00:00;;;;;;;4.65;1.90;;;14.80;99.90;;;;;;12517019;28;20144;-86
2021/08/02 07:06:01;;;;;;;6.78;1.88;;;14.90;99.90;;;;;;12515551;28;20501;-85
2021/08/02 07:12:04;;;;;;;5.80;2.28;;;15.30;99.90;;;;;;12528023;28;20140;-85
2021/08/02 07:18:06;;;;;;;6.15;1.38;;;15.60;99.90;;;;;;12529870;28;20166;-85
2021/08/02 07:24:07;;;;;;;4.80;1.25;;;15.60;99.90;;;;;;12529983;28;20049;-85
2021/08/02 07:30:10;;;;;;;5.75;2.10;;;15.70;99.90;;;;;;12521949;28;20053;-85
2021/08/02 07:36:12;;;;;;;5.10;1.70;;;15.60;99.90;;;;;;12524474;28;20124;-85
2021/08/02 07:42:13;;;;;;;5.25;1.50;;;15.50;99.90;;;;;;12524617;28;20143;-85
2021/08/02 07:48:15;;;;;;;4.03;1.35;;;15.40;99.90;;;;;;12522406;28;20107;-86
2021/08/02 07:54:17;;;;;;;7.35;1.73;;;15.60;99.90;;;;;;12523662;28;20052;-86
2021/08/02 08:00:19;;;;;;;5.30;1.48;;;15.60;99.90;;;;;;12534985;28;20139;-85
2021/08/02 08:06:21;;;;;;;3.58;1.80;;;15.80;99.90;;;;;;12523551;28;20081;-86
2021/08/02 08:12:23;;;;;;;6.13;2.50;;;15.70;99.90;;;;;;12528832;28;20508;-85
2021/08/02 08:18:27;;;;;;;5.78;1.52;;;15.60;99.90;;;;;;12530715;28;20045;-85
2021/08/02 08:24:28;;;;;;;7.70;1.10;;;15.70;99.90;;;;;;12537580;28;20501;-85
2021/08/02 08:30:30;;;;;;;6.32;1.88;;;15.70;99.90;;;;;;12530095;28;20102;-86
2021/08/02 08:36:32;;;;;;;4.60;1.60;;;15.70;99.90;;;;;;12525670;28;20048;-86
2021/08/02 08:42:34;;;;;;;6.30;1.27;;;16.10;99.90;;;;;;12529720;28;20080;-85
2021/08/02 08:48:37;;;;;;;5.93;1.70;;;16.40;99.90;;;;;;12532574;28;20067;-86
2021/08/02 08:54:42;;;;;;;6.22;1.60;;;16.30;99.90;;;;;;12559052;28;20071;-86
2021/08/02 09:00:43;;;;;;;;;;;16.00;99.90;;;;;;12532405;28;20441;-86
2021/08/02 09:06:49;;;;;;;4.32;1.58;;;16.10;99.90;;;;;;12522497;28;19951;-86
2021/08/02 09:12:53;;;;;;;4.13;1.50;;;16.60;99.90;;;;;;12518427;28;20155;-86
2021/08/02 09:19:01;;;;;;;3.83;1.70;;;16.90;99.90;;;;;;12529014;28;20252;-86
2021/08/02 09:25:14;;;;;;;6.03;1.67;;;16.90;99.90;;;;;;12515746;28;20091;-87
2021/08/02 09:31:16;;;;;;;5.00;1.50;;;16.70;99.90;;;;;;12516333;28;20454;-87
2021/08/02 09:37:24;;;;;;;2.75;0.90;;;16.60;99.90;;;;;;12524441;28;20697;-87
2021/08/02 09:43:29;;;;;;;7.25;1.40;;;17.10;99.90;;;;;;12505283;28;20144;-87
2021/08/02 09:49:48;;;;;;;7.60;0.95;;;17.30;99.90;;;;;;12523930;28;20139;-87
2021/08/02 09:55:50;;;;;;;5.20;2.15;;;17.60;99.90;;;;;;12508242;28;20190;-87
2021/08/02 10:01:54;;;;;;;3.10;1.00;;;17.30;99.90;;;;;;12516318;28;20067;-87
2021/08/02 10:07:58;;;;;;;2.78;0.90;;;17.10;99.90;;;;;;12506785;28;20143;-86
2021/08/02 10:14:00;;;;;;;4.00;1.02;;;17.20;99.90;;;;;;12519679;28;20052;-86
2021/08/02 10:20:04;;;;;;;4.38;1.00;;;17.70;99.90;;;;;;12517601;28;20079;-87
2021/08/02 10:26:28;;;;;;;3.50;1.13;;;18.00;99.90;;;;;;12518783;28;20049;-88
2021/08/02 10:32:32;;;;;;;;;;;17.80;99.90;;;;;;12533724;28;20076;-87
2021/08/02 10:38:40;;;;;;;4.40;1.00;;;18.10;99.90;;;;;;12520095;28;19929;-87
2021/08/02 10:44:52;;;;;;;3.08;0.90;;;18.40;99.90;;;;;;12521687;28;20052;-86
2021/08/02 10:50:55;;;;;;;1.98;0.60;;;18.70;99.90;;;;;;12523431;28;20041;-86
2021/08/02 10:57:09;;;;;;;4.70;0.80;;;18.70;99.90;;;;;;12521933;28;20052;-87
2021/08/02 11:03:11;;;;;;;4.03;0.80;;;19.10;99.90;;;;;;12533158;28;20052;-86
2021/08/02 11:09:13;;;;;;;3.13;0.80;;;19.30;99.90;;;;;;12532330;28;20315;-86
2021/08/02 11:15:18;;;;;;;2.70;1.05;;;18.60;99.90;;;;;;12525264;28;20497;-87
2021/08/02 11:21:24;;;;;;;3.35;0.57;;;18.30;99.90;;;;;;12533623;28;20522;-86
2021/08/02 11:27:26;;;;;;;3.95;0.85;;;17.90;99.90;;;;;;12524435;28;20057;-87
2021/08/02 11:33:32;;;;;;;2.50;0.90;;;17.60;99.90;;;;;;12531838;28;20052;-87
2021/08/02 11:39:36;;;;;;;3.72;0.82;;;17.60;99.90;;;;;;12528894;28;20075;-85
2021/08/02 11:45:39;;;;;;;4.68;1.10;;;17.30;99.90;;;;;;12530229;28;20507;-86
2021/08/02 11:51:41;;;;;;;6.18;1.02;;;17.30;99.90;;;;;;12527548;28;20117;-86
2021/08/02 11:57:43;;;;;;;3.92;0.90;;;17.20;99.90;;;;;;12534432;28;20547;-86
2021/08/02 12:03:47;;;;;;;6.07;1.45;;;17.20;99.90;;;;;;12514636;28;20041;-86
2021/08/02 12:09:51;;;;;;;3.22;1.00;;;17.20;99.90;;;;;;12529588;28;20079;-86
2021/08/02 12:15:58;;;;;;;4.22;1.20;;;17.20;99.90;;;;;;12527614;28;20094;-87
2021/08/02 12:22:00;;;;;;;3.40;0.80;;;17.60;99.90;;;;;;12520428;28;20044;-87
2021/08/02 12:28:02;;;;;;;2.33;0.80;;;17.80;99.90;;;;;;12535442;28;20440;-86
2021/08/02 12:34:04;;;;;;;3.97;0.82;;;18.70;99.90;;;;;;12523727;28;20048;-86
2021/08/02 12:40:10;;;;;;;2.22;1.00;;;18.90;99.90;;;;;;12509085;28;20491;-87
2021/08/02 12:46:12;;;;;;;2.83;0.80;;;19.20;99.90;;;;;;12522876;28;20130;-87
2021/08/02 12:52:31;;;;;;;2.05;0.90;;;19.80;99.90;;;;;;12525035;28;20457;-88
2021/08/02 12:58:33;;;;;;;3.53;0.98;;;19.90;99.90;;;;;;12522699;28;20135;-86
2021/08/02 13:04:35;;;;;;;2.88;0.80;;;19.40;99.90;;;;;;12579885;28;20049;-88
2021/08/02 13:10:37;;;;;;;3.78;0.90;;;20.30;99.90;;;;;;12531085;28;20473;-88
2021/08/02 13:16:39;;;;;;;10.60;1.45;;;20.70;99.90;;;;;;12528663;28;20132;-87
2021/08/02 13:22:49;;;;;;;5.20;1.10;;;21.20;99.90;;;;;;12522994;28;20041;-87
2021/08/02 13:28:51;;;;;;;4.25;1.00;;;21.30;99.90;;;;;;12524133;28;20058;-85
2021/08/02 13:34:53;;;;;;;4.40;1.10;;;21.50;99.90;;;;;;12525722;28;20461;-88
2021/08/02 13:40:55;;;;;;;5.65;0.90;;;21.40;99.90;;;;;;12516083;28;20488;-87
2021/08/02 13:46:57;;;;;;;1.70;0.70;;;21.90;99.90;;;;;;12521527;28;20052;-88
2021/08/02 13:52:59;;;;;;;4.95;1.10;;;21.90;99.90;;;;;;12511862;28;20079;-87
2021/08/02 13:59:01;;;;;;;3.72;0.80;;;22.20;99.90;;;;;;12513515;28;20147;-87
2021/08/02 14:05:07;;;;;;;2.75;0.82;;;22.30;99.90;;;;;;12526635;28;20098;-88
2021/08/02 14:11:15;;;;;;;3.05;0.77;;;22.10;99.90;;;;;;12518794;28;20454;-87
2021/08/02 14:17:24;;;;;;;4.75;1.08;;;22.30;99.90;;;;;;12525898;28;20091;-87
2021/08/02 14:23:28;;;;;;;1.98;0.70;;;22.40;99.90;;;;;;12528658;28;20102;-86
2021/08/02 14:29:41;;;;;;;4.40;1.00;;;22.30;99.90;;;;;;12540341;28;20057;-88
2021/08/02 14:35:43;;;;;;;3.95;1.08;;;21.90;99.90;;;;;;12530018;28;20107;-87
2021/08/02 14:41:47;;;;;;;2.63;0.80;;;20.90;99.90;;;;;;12543622;28;20083;-86
2021/08/02 14:47:53;;;;;;;4.18;1.02;;;20.40;99.90;;;;;;12546013;28;20070;-84
2021/08/02 14:53:56;;;;;;;4.00;1.00;;;20.20;99.90;;;;;;12536252;28;20072;-85
2021/08/02 15:00:01;;;;;;;3.63;0.85;;;20.10;99.90;;;;;;12541293;28;20143;-84
2021/08/02 15:06:06;;;;;;;4.40;1.50;;;20.00;99.90;;;;;;12546007;28;20688;-84
2021/08/02 15:12:08;;;;;;;3.70;1.10;;;20.60;99.90;;;;;;12545480;28;20045;-84
2021/08/02 15:18:17;;;;;;;3.55;0.90;;;20.50;99.90;;;;;;12546715;28;20074;-85
2021/08/02 15:24:20;;;;;;;3.92;1.30;;;21.10;99.90;;;;;;12549444;28;20094;-85
2021/08/02 15:30:22;;;;;;;3.05;1.00;;;21.60;99.90;;;;;;12540976;28;20448;-84
2021/08/02 15:36:25;;;;;;;2.92;1.10;;;21.30;99.90;;;;;;12541667;28;20045;-85
2021/08/02 15:42:27;;;;;;;3.08;0.98;;;21.40;99.90;;;;;;12533157;28;20127;-85
2021/08/02 15:48:30;;;;;;;2.47;0.90;;;21.30;99.90;;;;;;12543548;28;20198;-85
2021/08/02 15:54:43;;;;;;;3.75;1.00;;;21.00;99.90;;;;;;12542086;28;20075;-85
2021/08/02 16:00:59;;;;;;;7.90;1.20;;;20.70;99.90;;;;;;12536460;28;20052;-85
2021/08/02 16:07:10;;;;;;;6.15;1.27;;;20.40;99.90;;;;;;12528391;28;20049;-86
2021/08/02 16:13:14;;;;;;;4.15;1.08;;;20.00;99.90;;;;;;12541715;28;20522;-85
2021/08/02 16:19:18;;;;;;;4.07;1.15;;;19.70;99.90;;;;;;12535266;28;20041;-85
2021/08/02 16:25:22;;;;;;;4.80;1.10;;;19.90;99.90;;;;;;12543971;28;20104;-86
2021/08/02 16:31:25;;;;;;;1.73;1.00;;;19.90;99.90;;;;;;12546504;28;20173;-85
2021/08/02 16:37:27;;;;;;;6.85;0.95;;;19.70;99.90;;;;;;12544151;28;20539;-85
2021/08/02 16:43:30;;;;;;;4.03;1.00;;;19.60;99.90;;;;;;12581601;28;20032;-86
2021/08/02 16:49:32;;;;;;;3.67;1.00;;;19.40;99.90;;;;;;12545393;28;20057;-85
2021/08/02 16:55:34;;;;;;;4.45;1.00;;;19.20;99.90;;;;;;12546873;28;20384;-84
2021/08/02 17:01:36;;;;;;;3.03;0.93;;;19.30;99.90;;;;;;12540675;28;20123;-84
2021/08/02 17:07:38;;;;;;;3.65;1.10;;;19.30;99.90;;;;;;12532771;28;20083;-85
2021/08/02 17:13:40;;;;;;;2.10;0.80;;;19.20;99.90;;;;;;12533715;28;20141;-85
2021/08/02 17:19:42;;;;;;;4.88;1.05;;;19.10;99.90;;;;;;12533003;28;20045;-85
2021/08/02 17:25:43;;;;;;;2.05;0.90;;;19.00;99.90;;;;;;12529678;28;20045;-84
2021/08/02 17:31:45;;;;;;;3.70;1.27;;;18.90;99.90;;;;;;12534015;28;20048;-85
2021/08/02 17:37:48;;;;;;;3.03;1.60;;;18.80;99.90;;;;;;12530693;28;20036;-85
2021/08/02 17:43:50;;;;;;;4.80;1.52;;;18.80;99.90;;;;;;12525766;28;20048;-86
2021/08/02 17:49:51;;;;;;;4.40;1.23;;;18.70;99.90;;;;;;12525581;28;20546;-85
2021/08/02 17:55:54;;;;;;;5.13;1.23;;;18.80;99.90;;;;;;12523642;28;20711;-86
2021/08/02 18:01:56;;;;;;;4.25;1.20;;;18.70;99.90;;;;;;12539197;28;20170;-86
2021/08/02 18:07:59;;;;;;;4.93;1.10;;;18.50;99.90;;;;;;12528667;28;20057;-86
2021/08/02 18:14:00;;;;;;;5.25;1.30;;;18.50;99.90;;;;;;12530027;28;20049;-86
2021/08/02 18:20:04;;;;;;;5.68;1.48;;;18.30;99.90;;;;;;12522025;28;20377;-85
2021/08/02 18:26:06;;;;;;;2.95;1.08;;;18.30;99.90;;;;;;12571249;28;20033;-86
2021/08/02 18:32:08;;;;;;;3.47;1.15;;;18.20;99.90;;;;;;12521427;28;20041;-86
2021/08/02 18:38:09;;;;;;;5.47;1.30;;;18.10;99.90;;;;;;12522944;28;20076;-86
2021/08/02 18:44:12;;;;;;;2.75;1.38;;;18.00;99.90;;;;;;12518896;28;20037;-85
2021/08/02 18:50:13;;;;;;;3.58;1.13;;;17.90;99.90;;;;;;12518809;28;20075;-86
2021/08/02 18:56:15;;;;;;;4.72;1.20;;;17.90;99.90;;;;;;12520496;28;20049;-86
2021/08/02 19:02:17;;;;;;;3.40;1.10;;;17.90;99.90;;;;;;12515481;28;20102;-86
2021/08/02 19:08:19;;;;;;;5.20;1.60;;;17.80;99.90;;;;;;12531021;28;20588;-86
2021/08/02 19:14:21;;;;;;;4.40;1.13;;;17.70;99.90;;;;;;12536183;28;20139;-85
2021/08/02 19:20:25;;;;;;;3.38;1.10;;;17.70;99.90;;;;;;12527140;28;20110;-85
2021/08/02 19:26:27;;;;;;;4.22;1.20;;;17.80;99.90;;;;;;12522624;28;20056;-84
2021/08/02 19:32:30;;;;;;;3.80;1.60;;;17.80;99.90;;;;;;12541424;28;20045;-85
2021/08/02 19:38:31;;;;;;;6.07;1.20;;;17.60;99.90;;;;;;12534238;28;20056;-85
2021/08/02 19:44:38;;;;;;;4.38;1.30;;;17.70;99.90;;;;;;12526157;28;20044;-84
2021/08/02 19:50:42;;;;;;;2.47;1.27;;;17.50;99.90;;;;;;12537000;28;20090;-85
2021/08/02 19:56:44;;;;;;;2.72;1.13;;;17.40;99.90;;;;;;12532238;28;20540;-84
2021/08/02 20:02:47;;;;;;;3.50;1.15;;;17.30;99.90;;;;;;12541512;28;20107;-84
2021/08/02 20:08:50;;;;;;;3.53;1.25;;;17.30;99.90;;;;;;12499524;28;20088;-85
2021/08/02 20:14:52;;;;;;;7.05;1.40;;;17.50;99.90;;;;;;12454059;28;20064;-85
2021/08/02 20:20:56;;;;;;;4.45;1.60;;;17.10;99.90;;;;;;12458539;28;20354;-85
2021/08/02 20:27:04;;;;;;;4.45;1.30;;;16.50;99.90;;;;;;12473553;28;20088;-86
2021/08/02 20:33:09;;;;;;;5.82;1.65;;;16.40;99.90;;;;;;12456946;28;20041;-86
2021/08/02 20:39:13;;;;;;;3.42;1.73;;;15.90;99.90;;;;;;12459530;28;20142;-85
2021/08/02 20:45:15;;;;;;;5.45;2.10;;;15.50;99.90;;;;;;12465901;28;20113;-85
2021/08/02 20:51:18;;;;;;;6.05;2.10;;;15.30;99.90;;;;;;12475789;28;20094;-84
2021/08/02 20:57:20;;;;;;;10.75;2.40;;;15.30;99.90;;;;;;12480779;28;20054;-85
2021/08/02 21:03:30;;;;;;;6.15;1.90;;;15.40;99.90;;;;;;12471241;28;20107;-85
2021/08/02 21:09:42;;;;;;;4.88;1.90;;;15.60;99.90;;;;;;12488177;28;20055;-85
2021/08/02 21:15:48;;;;;;;3.45;1.50;;;15.50;99.90;;;;;;12506569;28;20045;-85
2021/08/02 21:21:51;;;;;;;4.85;1.75;;;15.60;99.90;;;;;;12513458;28;20451;-85
2021/08/02 21:28:02;;;;;;;5.35;1.95;;;15.60;99.90;;;;;;12520733;28;20103;-85
2021/08/02 21:34:04;;;;;;;6.18;1.90;;;15.60;99.90;;;;;;12524158;28;20549;-84
2021/08/02 21:40:07;;;;;;;6.40;2.05;;;15.40;99.90;;;;;;12512643;28;20045;-85
2021/08/02 21:46:09;;;;;;;4.57;1.83;;;15.20;99.90;;;;;;12529727;28;20128;-84
2021/08/02 21:52:11;;;;;;;4.55;1.83;;;15.20;99.90;;;;;;12522122;28;20492;-84
2021/08/02 21:58:14;;;;;;;4.05;1.80;;;15.10;99.90;;;;;;12523226;28;20116;-85
2021/08/02 22:04:16;;;;;;;4.10;1.80;;;15.20;99.90;;;;;;12517306;28;20037;-84
2021/08/02 22:10:18;;;;;;;6.63;2.45;;;15.20;99.90;;;;;;12574865;28;20048;-85
2021/08/02 22:16:20;;;;;;;4.70;1.70;;;15.10;99.90;;;;;;12512478;28;20045;-84
2021/08/02 22:22:23;;;;;;;3.90;1.65;;;15.00;99.90;;;;;;12521660;28;20041;-84
2021/08/02 22:28:25;;;;;;;3.30;1.80;;;15.00;99.90;;;;;;12531905;28;20101;-84
2021/08/02 22:34:27;;;;;;;3.95;1.55;;;15.10;99.90;;;;;;12508099;28;20053;-84
2021/08/02 22:40:30;;;;;;;4.20;1.83;;;15.20;99.90;;;;;;12521434;28;20486;-85
2021/08/02 22:46:33;;;;;;;5.03;2.47;;;15.20;99.90;;;;;;12523251;28;20467;-84
2021/08/02 22:52:34;;;;;;;3.63;1.80;;;15.10;99.90;;;;;;12529251;28;20040;-85
2021/08/02 22:58:37;;;;;;;4.20;1.73;;;15.00;99.90;;;;;;12524590;28;20115;-85
2021/08/02 23:04:49;;;;;;;5.15;1.80;;;14.90;99.90;;;;;;12519643;28;20105;-84
2021/08/02 23:10:51;;;;;;;3.67;1.40;;;14.90;99.90;;;;;;12516117;28;20179;-85
2021/08/02 23:16:55;;;;;;;4.22;1.58;;;15.00;99.90;;;;;;12525176;28;20286;-85
2021/08/02 23:22:58;;;;;;;4.72;1.50;;;15.10;99.90;;;;;;12530721;28;20041;-84
2021/08/02 23:29:04;;;;;;;3.10;1.40;;;15.20;99.90;;;;;;12521615;28;20048;-85
2021/08/02 23:35:06;;;;;;;4.57;1.77;;;15.40;99.90;;;;;;12529480;28;20070;-84
2021/08/02 23:41:08;;;;;;;7.15;1.55;;;15.50;99.90;;;;;;12532325;28;20040;-84
2021/08/02 23:47:10;;;;;;;4.93;1.70;;;15.40;99.90;;;;;;12525723;28;20044;-84
2021/08/02 23:53:12;;;;;;;5.75;2.10;;;15.40;99.90;;;;;;12511427;28;20045;-85
2021/08/02 23:59:14;;;;;;;4.20;1.98;;;15.20;99.90;;;;;;12524794;28;20656;-84
